Time;durP1;ratioP1;P1;durP2;ratioP2;P2;SDS_P1;SDS_P2;PMS_P1;PMS_P2;Temp;Humidity;BMP_temperature;BMP_pressure;BME280_temperature;BME280_humidity;BME280_pressure;Samples;Min_cycle;Max_cycle;Signal;HPM_P1;HPM_P2
2021/12/22 00:02:18;;;;;;;22.20;12.60;;;;;;;-3.44;85.30;95488.16;5093604;28;20204;-79
2021/12/22 00:04:49;;;;;;;26.33;12.83;;;;;;;-3.39;84.43;95480.19;5088463;28;20197;-80
2021/12/22 00:07:18;;;;;;;26.27;13.30;;;;;;;-3.23;84.81;95494.19;5092777;28;20193;-79
2021/12/22 00:09:47;;;;;;;22.43;11.67;;;;;;;-3.12;83.97;95491.69;5097891;28;20208;-79
2021/12/22 00:12:15;;;;;;;20.13;11.07;;;;;;;-3.03;83.25;95488.44;5093859;28;20208;-80
2021/12/22 00:14:42;;;;;;;20.00;11.10;;;;;;;-2.94;81.65;95489.47;5093133;28;20565;-79
2021/12/22 00:17:10;;;;;;;19.33;11.10;;;;;;;-2.86;80.78;95487.97;5092642;28;20256;-80
2021/12/22 00:19:39;;;;;;;23.40;11.00;;;;;;;-2.80;80.00;95491.00;5087830;28;20256;-80
2021/12/22 00:22:07;;;;;;;19.17;10.77;;;;;;;-2.72;78.77;95486.13;5078842;28;20204;-79
2021/12/22 00:24:36;;;;;;;19.70;11.47;;;;;;;-2.74;79.46;95480.38;5074206;28;20740;-80
2021/12/22 00:27:04;;;;;;;19.60;10.80;;;;;;;-2.81;79.72;95479.19;5092831;28;20610;-79
2021/12/22 00:29:31;;;;;;;22.33;11.47;;;;;;;-2.78;79.64;95486.59;5093435;28;20572;-81
2021/12/22 00:32:11;;;;;;;20.03;10.83;;;;;;;-2.76;80.20;95487.28;5079275;28;20201;-79
2021/12/22 00:34:46;;;;;;;20.60;11.00;;;;;;;-2.74;79.29;95488.00;5087352;28;20216;-78
2021/12/22 00:37:16;;;;;;;19.43;9.70;;;;;;;-2.69;78.65;95496.88;5084465;28;20205;-79
2021/12/22 00:39:46;;;;;;;19.20;10.50;;;;;;;-2.71;78.83;95501.25;5087669;28;20892;-79
2021/12/22 00:42:15;;;;;;;18.57;9.37;;;;;;;-2.67;78.35;95499.28;5092762;28;20951;-79
2021/12/22 00:44:45;;;;;;;21.67;10.70;;;;;;;-2.67;78.80;95497.56;5085117;28;20209;-80
2021/12/22 00:47:14;;;;;;;21.60;11.47;;;;;;;-2.66;78.98;95496.66;5092822;28;20200;-79
2021/12/22 00:49:42;;;;;;;19.17;10.80;;;;;;;-2.66;78.97;95506.00;5092595;28;20200;-79
2021/12/22 00:52:11;;;;;;;20.10;10.83;;;;;;;-2.68;78.54;95508.66;5092417;28;20268;-79
2021/12/22 00:54:39;;;;;;;23.50;10.93;;;;;;;-2.72;78.88;95489.50;5085498;28;20207;-79
2021/12/22 00:57:10;;;;;;;20.23;11.20;;;;;;;-2.87;79.77;95505.91;5092093;28;20209;-81
2021/12/22 00:59:38;;;;;;;21.80;11.13;;;;;;;-3.28;82.41;95501.34;5092502;28;20260;-80
2021/12/22 01:02:09;;;;;;;21.43;11.57;;;;;;;-3.69;85.97;95504.38;5091751;28;20197;-80
2021/12/22 01:04:37;;;;;;;21.43;11.33;;;;;;;-3.75;88.75;95501.47;5087820;28;20205;-78
2021/12/22 01:07:05;;;;;;;22.03;11.27;;;;;;;-3.67;87.75;95500.00;5071715;28;20282;-78
2021/12/22 01:09:33;;;;;;;22.80;11.17;;;;;;;-3.55;88.06;95505.94;5088092;28;20286;-78
2021/12/22 01:12:01;;;;;;;25.23;12.83;;;;;;;-3.45;88.32;95501.78;5085507;28;20275;-79
2021/12/22 01:14:33;;;;;;;30.63;12.47;;;;;;;-3.30;87.17;95494.78;5088630;28;20258;-79
2021/12/22 01:17:03;;;;;;;26.60;13.27;;;;;;;-3.22;86.29;95500.09;5093795;28;20197;-83
2021/12/22 01:19:40;;;;;;;22.40;12.27;;;;;;;-3.07;84.42;95496.41;5089129;28;20967;-84
2021/12/22 01:22:20;;;;;;;22.80;11.57;;;;;;;-3.07;82.12;95478.63;5092931;28;20584;-82
2021/12/22 01:24:59;;;;;;;25.30;12.40;;;;;;;-2.92;81.44;95497.81;5086911;28;20687;-82
2021/12/22 01:27:32;;;;;;;23.37;12.10;;;;;;;-2.89;80.15;95487.41;5085483;28;20218;-83
2021/12/22 01:30:02;;;;;;;19.33;10.87;;;;;;;-2.87;79.51;95491.47;5092505;28;20188;-83
2021/12/22 01:32:29;;;;;;;20.53;10.70;;;;;;;-2.84;78.04;95492.94;5095652;28;20267;-83
2021/12/22 01:34:57;;;;;;;23.20;10.90;;;;;;;-2.84;77.54;95487.06;5113034;28;20200;-83
2021/12/22 01:37:26;;;;;;;18.77;10.47;;;;;;;-2.86;77.23;95479.56;5112695;28;20249;-81
2021/12/22 01:39:54;;;;;;;20.20;10.23;;;;;;;-2.86;76.79;95484.66;5108154;28;20349;-78
2021/12/22 01:42:22;;;;;;;20.77;11.17;;;;;;;-2.89;76.91;95485.66;5090374;28;20196;-78
2021/12/22 01:45:12;;;;;;;18.07;10.30;;;;;;;-2.96;77.76;95479.44;5084143;28;20664;-78
2021/12/22 01:50:34;;;;;;;15.97;9.23;;;;;;;-3.11;78.09;95469.59;5081115;28;20200;-78
2021/12/22 01:53:08;;;;;;;20.40;10.37;;;;;;;-2.93;76.74;95484.28;5078253;28;20199;-78
2021/12/22 01:55:45;;;;;;;17.70;9.90;;;;;;;-3.05;76.75;95453.88;5091627;28;20239;-78
2021/12/22 01:58:19;;;;;;;18.53;10.00;;;;;;;-3.04;76.27;95463.97;5077732;28;20201;-78
2021/12/22 02:00:47;;;;;;;19.53;10.27;;;;;;;-3.26;77.90;95473.31;5084202;28;20220;-78
2021/12/22 02:03:17;;;;;;;19.40;10.47;;;;;;;-3.68;80.51;95472.19;5090549;28;20212;-79
2021/12/22 02:05:45;;;;;;;19.40;10.80;;;;;;;-4.03;83.77;95470.44;5083768;28;20207;-79
2021/12/22 02:08:13;;;;;;;21.43;11.40;;;;;;;-4.12;86.09;95465.22;5090907;28;20230;-80
2021/12/22 02:10:46;;;;;;;23.30;12.17;;;;;;;-3.98;86.76;95470.09;5091528;28;20646;-80
2021/12/22 02:13:19;;;;;;;26.83;13.27;;;;;;;-3.89;86.84;95476.25;5078995;28;20207;-79
2021/12/22 02:15:48;;;;;;;31.03;14.60;;;;;;;-3.82;86.67;95463.03;5085010;28;20197;-80
2021/12/22 02:18:20;;;;;;;27.50;14.13;;;;;;;-3.68;86.29;95462.84;5086799;28;20213;-79
2021/12/22 02:20:50;;;;;;;30.73;14.77;;;;;;;-3.56;85.42;95456.88;5091488;28;20224;-80
2021/12/22 02:23:18;;;;;;;27.93;14.50;;;;;;;-3.45;84.57;95466.22;5091733;28;20226;-84
2021/12/22 02:25:54;;;;;;;32.10;15.90;;;;;;;-3.40;84.21;95451.44;5089237;28;20653;-85
2021/12/22 02:28:25;;;;;;;27.83;15.00;;;;;;;-3.24;85.35;95457.03;5071815;28;20197;-82
2021/12/22 02:30:53;;;;;;;31.23;14.43;;;;;;;-3.13;83.61;95466.38;5078086;28;20243;-82
2021/12/22 02:33:26;;;;;;;28.70;14.70;;;;;;;-3.21;83.76;95448.34;5082370;28;20192;-82
2021/12/22 02:36:20;;;;;;;27.90;14.13;;;;;;;-3.16;82.70;95448.81;5091747;28;20196;-82
2021/12/22 02:38:49;;;;;;;32.73;15.93;;;;;;;-3.13;82.02;95441.78;5083511;28;20684;-83
2021/12/22 02:41:19;;;;;;;38.73;19.70;;;;;;;-3.28;81.55;95429.41;5091470;28;20271;-83
2021/12/22 02:43:55;;;;;;;42.83;22.10;;;;;;;-3.21;81.53;95449.16;5077815;28;20255;-85
2021/12/22 02:46:25;;;;;;;53.00;24.63;;;;;;;-3.21;80.90;95445.81;5092268;28;20201;-85
2021/12/22 02:48:53;;;;;;;53.60;27.63;;;;;;;-3.33;81.68;95437.38;5088273;28;20209;-85
2021/12/22 02:51:27;;;;;;;58.07;29.37;;;;;;;-3.23;81.95;95445.13;5071585;28;20239;-85
2021/12/22 02:54:04;;;;;;;59.37;29.73;;;;;;;-3.25;81.33;95439.34;5077865;28;20197;-85
2021/12/22 02:56:38;;;;;;;60.03;28.80;;;;;;;-3.34;81.41;95438.28;5071641;28;20254;-85
2021/12/22 02:59:19;;;;;;;58.13;28.27;;;;;;;-3.35;81.10;95435.88;5071204;28;20291;-85
2021/12/22 03:02:09;;;;;;;60.97;30.10;;;;;;;-3.52;82.15;95445.53;5072568;28;20206;-84
2021/12/22 03:04:45;;;;;;;65.63;30.27;;;;;;;-4.04;85.82;95457.88;5091503;28;20181;-82
2021/12/22 03:07:18;;;;;;;67.00;31.77;;;;;;;-4.47;89.08;95460.09;5091229;28;20184;-82
2021/12/22 03:09:55;;;;;;;67.27;31.47;;;;;;;-4.68;93.82;95442.13;5091456;28;20249;-84
2021/12/22 03:12:23;;;;;;;64.53;31.73;;;;;;;-4.51;94.31;95456.16;5091668;28;20180;-84
2021/12/22 03:14:51;;;;;;;61.70;30.50;;;;;;;-4.47;94.56;95439.03;5083533;28;20275;-84
2021/12/22 03:17:20;;;;;;;67.90;31.63;;;;;;;-4.27;93.62;95446.03;5111361;28;20783;-84
2021/12/22 03:19:48;;;;;;;70.57;30.83;;;;;;;-4.12;91.79;95443.19;5079012;28;21023;-83
2021/12/22 03:22:21;;;;;;;60.20;29.83;;;;;;;-3.97;89.61;95436.22;5071791;28;20197;-85
2021/12/22 03:24:50;;;;;;;65.07;31.53;;;;;;;-3.85;88.75;95450.56;5072710;28;20662;-85
2021/12/22 03:27:24;;;;;;;67.53;33.90;;;;;;;-3.84;88.69;95447.09;5080875;28;20724;-86
2021/12/22 03:29:53;;;;;;;66.07;32.60;;;;;;;-3.74;87.80;95458.19;5099308;28;20255;-84
2021/12/22 03:32:21;;;;;;;71.80;33.50;;;;;;;-3.73;87.63;95451.41;5091039;28;20278;-84
2021/12/22 03:34:49;;;;;;;66.03;31.97;;;;;;;-3.67;85.86;95445.88;5110193;28;20219;-84
2021/12/22 03:37:18;;;;;;;65.13;31.43;;;;;;;-3.64;85.77;95443.94;5075223;28;20206;-83
2021/12/22 03:39:47;;;;;;;65.50;32.00;;;;;;;-3.58;85.21;95448.53;5072363;28;20203;-83
2021/12/22 03:42:15;;;;;;;61.87;31.00;;;;;;;-3.61;84.97;95438.59;5090780;28;20246;-85
2021/12/22 03:44:43;;;;;;;72.03;32.30;;;;;;;-3.59;85.34;95438.50;5091456;28;20239;-84
2021/12/22 03:47:11;;;;;;;69.23;32.37;;;;;;;-3.68;85.47;95444.25;5091738;28;20255;-84
2021/12/22 03:49:39;;;;;;;72.37;33.03;;;;;;;-3.68;85.68;95434.91;5091013;28;20736;-84
2021/12/22 03:52:07;;;;;;;65.90;32.93;;;;;;;-3.68;85.58;95436.63;5090989;28;20205;-80
2021/12/22 03:54:36;;;;;;;77.10;34.90;;;;;;;-3.61;84.90;95441.13;5088822;28;20262;-81
2021/12/22 03:57:05;;;;;;;70.87;32.80;;;;;;;-3.59;84.29;95449.47;5086868;28;20232;-80
2021/12/22 03:59:32;;;;;;;65.23;32.37;;;;;;;-3.57;84.20;95452.69;5093123;28;20201;-80
2021/12/22 04:02:01;;;;;;;76.67;33.73;;;;;;;-3.63;84.08;95460.75;5093834;28;20271;-79
2021/12/22 04:04:29;;;;;;;74.50;32.80;;;;;;;-4.02;85.48;95459.41;5084473;28;20208;-78
2021/12/22 04:06:57;;;;;;;71.90;33.53;;;;;;;-4.43;89.15;95463.22;5089017;28;20238;-79
2021/12/22 04:09:27;;;;;;;77.47;33.93;;;;;;;-4.72;93.06;95461.00;5093198;28;20197;-70
2021/12/22 04:11:58;;;;;;;87.90;37.17;;;;;;;-4.73;95.27;95453.47;5091408;28;20664;-71
2021/12/22 04:14:26;;;;;;;99.13;40.37;;;;;;;-4.79;96.00;95436.97;5091670;28;20284;-70
2021/12/22 04:16:54;;;;;;;105.10;45.23;;;;;;;-4.57;95.10;95469.28;5091591;28;20232;-72
2021/12/22 04:19:22;;;;;;;109.63;47.53;;;;;;;-4.41;94.37;95464.75;5092296;28;20212;-71
2021/12/22 04:21:51;;;;;;;110.60;47.17;;;;;;;-4.36;93.29;95472.84;5091308;28;20217;-72
2021/12/22 04:24:20;;;;;;;121.60;50.03;;;;;;;-4.24;91.87;95474.50;5091233;28;20189;-71
2021/12/22 04:26:48;;;;;;;125.90;50.17;;;;;;;-4.13;91.02;95469.47;5090832;28;20711;-71
2021/12/22 04:29:18;;;;;;;151.70;57.97;;;;;;;-4.09;90.42;95465.00;5091410;28;20212;-71
2021/12/22 04:31:45;;;;;;;126.13;51.93;;;;;;;-4.02;89.12;95466.19;5092352;28;20628;-70
2021/12/22 04:34:12;;;;;;;144.97;54.17;;;;;;;-3.96;87.89;95470.84;5098878;27;20274;-71
2021/12/22 04:36:41;;;;;;;131.33;49.83;;;;;;;-3.92;87.50;95476.47;5091419;28;20304;-70
2021/12/22 04:39:11;;;;;;;159.77;56.23;;;;;;;-4.03;87.99;95469.63;5090989;28;20251;-71
2021/12/22 04:41:39;;;;;;;184.00;62.27;;;;;;;-3.97;88.30;95473.47;5090817;28;20602;-71
2021/12/22 04:44:09;;;;;;;150.63;57.43;;;;;;;-3.92;87.43;95479.81;5090560;28;20291;-71
2021/12/22 04:46:38;;;;;;;158.33;56.90;;;;;;;-3.95;87.56;95482.59;5089308;28;20197;-71
2021/12/22 04:49:06;;;;;;;151.67;56.90;;;;;;;-4.06;87.96;95472.41;5090065;28;20205;-71
2021/12/22 04:51:36;;;;;;;192.07;70.07;;;;;;;-3.95;88.51;95485.13;5091983;28;20200;-71
2021/12/22 04:54:12;;;;;;;174.73;66.60;;;;;;;-3.91;88.43;95489.06;5097696;27;20212;-71
2021/12/22 04:56:40;;;;;;;162.20;60.03;;;;;;;-3.89;87.22;95488.94;5094199;28;20202;-72
2021/12/22 04:59:08;;;;;;;186.77;68.60;;;;;;;-3.89;87.97;95487.22;5089149;28;20236;-71
2021/12/22 05:01:36;;;;;;;203.13;74.70;;;;;;;-3.94;88.62;95483.41;5095275;28;20221;-72
2021/12/22 05:04:05;;;;;;;201.20;80.10;;;;;;;-3.93;88.21;95492.63;5094428;28;20292;-71
2021/12/22 05:06:34;;;;;;;188.50;71.83;;;;;;;-3.89;87.74;95492.28;5093317;28;20204;-71
2021/12/22 05:09:01;;;;;;;171.33;70.50;;;;;;;-3.87;87.93;95489.66;5094334;28;20196;-71
2021/12/22 05:11:29;;;;;;;133.83;52.93;;;;;;;-3.89;87.53;95501.63;5093329;28;20193;-85
2021/12/22 05:13:56;;;;;;;134.83;50.40;;;;;;;-3.89;87.46;95497.38;5110847;28;20261;-83
2021/12/22 05:16:23;;;;;;;196.70;58.60;;;;;;;-3.89;87.06;95505.00;5101962;28;20204;-84
2021/12/22 05:18:57;;;;;;;172.57;60.63;;;;;;;-3.85;87.00;95501.31;5107125;28;20205;-83
2021/12/22 05:21:26;;;;;;;78.00;31.83;;;;;;;-4.24;85.72;95507.47;5091570;28;20691;-83
2021/12/22 05:23:54;;;;;;;95.40;35.17;;;;;;;-4.56;86.79;95497.97;5104380;28;20204;-83
2021/12/22 05:26:25;;;;;;;180.63;58.80;;;;;;;-4.90;92.60;95501.97;5105019;28;20316;-81
2021/12/22 05:28:54;;;;;;;97.73;38.37;;;;;;;-4.98;95.38;95497.44;5088237;28;20309;-77
2021/12/22 05:31:23;;;;;;;91.30;37.90;;;;;;;-4.83;95.30;95511.63;5095894;28;20196;-79
2021/12/22 05:33:51;;;;;;;98.33;38.47;;;;;;;-4.72;94.09;95516.75;5097450;28;20262;-77
2021/12/22 05:36:18;;;;;;;86.43;36.30;;;;;;;-4.57;92.88;95506.47;5095356;28;20188;-85
2021/12/22 05:38:53;;;;;;;95.23;37.53;;;;;;;-4.49;91.72;95501.69;5097261;28;20232;-84
2021/12/22 05:41:22;;;;;;;143.40;53.50;;;;;;;-4.41;91.14;95512.09;5100017;28;20203;-84
2021/12/22 05:43:50;;;;;;;147.47;55.23;;;;;;;-4.30;90.78;95517.28;5106283;28;20195;-85
2021/12/22 05:46:18;;;;;;;155.10;55.53;;;;;;;-4.24;89.39;95511.78;5094405;28;20193;-79
2021/12/22 05:48:47;;;;;;;150.13;53.67;;;;;;;-4.22;89.04;95517.53;5094556;28;20220;-79
2021/12/22 05:51:15;;;;;;;146.23;56.73;;;;;;;-4.13;87.83;95514.34;5094760;28;20691;-78
2021/12/22 05:53:43;;;;;;;180.17;64.50;;;;;;;-4.10;86.11;95514.94;5091704;28;20295;-79
2021/12/22 05:56:14;;;;;;;168.43;65.20;;;;;;;-4.13;86.55;95520.22;5095233;28;20200;-77
2021/12/22 05:58:41;;;;;;;166.23;65.83;;;;;;;-4.12;85.74;95521.84;5098714;28;20219;-82
2021/12/22 06:01:08;;;;;;;178.00;74.53;;;;;;;-4.15;86.04;95518.72;5107420;28;20303;-82
2021/12/22 06:03:36;;;;;;;185.17;75.90;;;;;;;-4.14;85.67;95525.41;5096560;28;20218;-82
2021/12/22 06:06:05;;;;;;;169.43;72.10;;;;;;;-4.11;86.07;95517.59;5097407;28;20751;-83
2021/12/22 06:08:33;;;;;;;174.83;72.93;;;;;;;-4.19;85.81;95514.78;5095422;28;20209;-84
2021/12/22 06:11:00;;;;;;;200.40;83.57;;;;;;;-4.12;85.29;95521.03;5097878;28;20196;-82
2021/12/22 06:13:30;;;;;;;196.90;81.97;;;;;;;-4.21;84.91;95511.53;5096766;28;20266;-92
2021/12/22 06:16:03;;;;;;;208.37;85.40;;;;;;;-4.22;86.14;95531.03;5097176;28;21086;-81
2021/12/22 06:18:31;;;;;;;223.93;92.17;;;;;;;-4.67;86.88;95514.72;5097358;28;20258;-80
2021/12/22 06:21:00;;;;;;;260.53;103.47;;;;;;;-4.87;90.26;95529.66;5097607;28;20235;-81
2021/12/22 06:23:28;;;;;;;274.00;111.83;;;;;;;-4.85;91.31;95532.91;5091705;28;20806;-80
2021/12/22 06:25:55;;;;;;;264.10;108.70;;;;;;;-4.87;90.92;95537.25;5099752;28;20244;-84
2021/12/22 06:28:23;;;;;;;267.67;104.73;;;;;;;-5.23;91.09;95536.28;5098664;28;20568;-85
2021/12/22 06:30:52;;;;;;;248.50;98.73;;;;;;;-5.53;93.53;95543.31;5099660;28;20189;-84
2021/12/22 06:33:19;;;;;;;237.40;92.27;;;;;;;-5.51;95.98;95538.16;5093709;28;20200;-84
2021/12/22 06:35:48;;;;;;;229.17;93.13;;;;;;;-5.39;96.44;95543.22;5097116;28;20200;-83
2021/12/22 06:38:16;;;;;;;245.80;103.00;;;;;;;-5.17;95.85;95548.53;5099133;28;20674;-83
2021/12/22 06:40:44;;;;;;;230.40;95.53;;;;;;;-4.98;95.34;95548.09;5093018;28;20585;-86
2021/12/22 06:43:12;;;;;;;216.07;88.67;;;;;;;-4.80;94.16;95546.06;5100155;28;20196;-86
2021/12/22 06:45:40;;;;;;;193.47;79.83;;;;;;;-4.71;93.11;95537.84;5094892;28;20205;-84
2021/12/22 06:48:10;;;;;;;179.50;76.83;;;;;;;-4.50;92.16;95554.13;5100687;28;20199;-84
2021/12/22 06:50:38;;;;;;;168.87;73.27;;;;;;;-4.36;90.51;95556.53;5095308;28;20633;-85
2021/12/22 06:53:06;;;;;;;159.73;69.93;;;;;;;-4.24;89.16;95549.81;5101143;28;20219;-84
2021/12/22 06:55:34;;;;;;;138.33;62.87;;;;;;;-4.13;87.63;95562.56;5097079;28;20283;-84
2021/12/22 06:58:02;;;;;;;115.17;51.20;;;;;;;-4.08;87.65;95557.97;5097452;28;20990;-85
2021/12/22 07:00:30;;;;;;;70.27;30.80;;;;;;;-3.92;86.40;95563.56;5093668;28;20193;-84
2021/12/22 07:02:58;;;;;;;47.43;23.60;;;;;;;-3.82;85.66;95566.28;5102674;28;20694;-84
2021/12/22 07:05:28;;;;;;;47.77;22.60;;;;;;;-3.88;84.30;95542.16;5100403;28;20210;-84
2021/12/22 07:07:56;;;;;;;45.23;23.27;;;;;;;-3.74;84.50;95556.41;5094947;28;20212;-83
2021/12/22 07:10:23;;;;;;;45.37;23.90;;;;;;;-3.68;84.49;95561.03;5099575;28;20206;-84
2021/12/22 07:12:51;;;;;;;49.83;24.73;;;;;;;-3.63;83.89;95564.06;5096612;28;20282;-84
2021/12/22 07:15:20;;;;;;;52.67;26.67;;;;;;;-3.58;83.29;95557.72;5099861;28;20220;-84
2021/12/22 07:17:51;;;;;;;50.77;24.83;;;;;;;-3.55;82.44;95560.03;5106702;28;20282;-84
2021/12/22 07:20:19;;;;;;;45.87;22.33;;;;;;;-3.90;84.04;95550.81;5097257;28;20210;-84
2021/12/22 07:22:48;;;;;;;51.27;23.97;;;;;;;-4.30;87.54;95557.84;5098867;28;20228;-84
2021/12/22 07:25:18;;;;;;;51.47;23.63;;;;;;;-4.41;90.15;95560.28;5094416;28;20278;-85
2021/12/22 07:27:47;;;;;;;52.87;23.30;;;;;;;-4.48;90.79;95534.56;5088486;28;20197;-85
2021/12/22 07:30:15;;;;;;;47.17;22.80;;;;;;;-4.16;91.03;95560.25;5099007;28;20189;-85
2021/12/22 07:32:43;;;;;;;49.90;23.77;;;;;;;-3.94;89.82;95557.81;5090725;28;20289;-85
2021/12/22 07:35:16;;;;;;;50.90;22.50;;;;;;;-3.73;89.20;95558.03;5103010;28;20215;-85
2021/12/22 07:38:07;;;;;;;43.70;22.83;;;;;;;-3.49;87.76;95561.34;5098190;28;20211;-85
2021/12/22 07:40:36;;;;;;;49.47;23.80;;;;;;;-3.27;84.71;95547.91;5095230;28;20204;-85
2021/12/22 07:43:04;;;;;;;48.20;22.67;;;;;;;-3.03;82.96;95551.19;5099000;28;20251;-84
2021/12/22 07:45:32;;;;;;;45.50;22.07;;;;;;;-2.88;82.09;95547.50;5100653;28;20254;-85
2021/12/22 07:47:59;;;;;;;47.50;23.00;;;;;;;-2.70;79.56;95540.22;5100028;28;20200;-86
2021/12/22 07:50:27;;;;;;;45.93;23.73;;;;;;;-2.60;78.94;95547.06;5095580;28;20196;-85
2021/12/22 07:52:56;;;;;;;42.40;21.07;;;;;;;-2.48;77.07;95548.66;5106042;28;20741;-85
2021/12/22 07:55:46;;;;;;;47.17;22.43;;;;;;;-2.38;77.40;95547.03;5103242;28;20579;-85
2021/12/22 07:58:14;;;;;;;53.93;25.10;;;;;;;-2.33;76.61;95551.75;5095453;28;20191;-85
2021/12/22 08:00:43;;;;;;;54.90;26.87;;;;;;;-2.43;76.32;95528.78;5097029;28;20740;-85
2021/12/22 08:03:11;;;;;;;52.17;25.57;;;;;;;-2.19;75.75;95560.91;5087352;28;20311;-85
2021/12/22 08:05:44;;;;;;;48.67;25.30;;;;;;;-2.27;75.93;95546.19;5091253;28;20284;-86
2021/12/22 08:08:14;;;;;;;56.13;26.30;;;;;;;-2.20;75.19;95549.09;5097716;28;20201;-85
2021/12/22 08:10:43;;;;;;;55.20;26.43;;;;;;;-2.17;75.35;95553.94;5094890;28;20559;-85
2021/12/22 08:13:11;;;;;;;55.07;25.70;;;;;;;-2.39;75.52;95563.22;5094841;28;20258;-82
2021/12/22 08:15:38;;;;;;;52.10;22.40;;;;;;;-2.63;77.11;95572.72;5113525;28;20200;-81
2021/12/22 08:18:06;;;;;;;43.50;20.87;;;;;;;-2.93;77.35;95575.00;5103406;28;20224;-81
2021/12/22 08:20:34;;;;;;;40.03;20.00;;;;;;;-3.00;79.14;95573.84;5102397;28;20200;-84
2021/12/22 08:23:02;;;;;;;50.63;21.73;;;;;;;-2.79;79.38;95568.88;5097712;28;20677;-81
2021/12/22 08:25:33;;;;;;;49.40;20.77;;;;;;;-2.54;79.32;95573.75;5093024;28;20225;-81
2021/12/22 08:28:01;;;;;;;35.77;17.73;;;;;;;-2.31;77.19;95565.19;5103781;28;20214;-81
2021/12/22 08:30:51;;;;;;;32.33;16.60;;;;;;;-1.96;73.92;95577.72;5107987;28;20201;-82
2021/12/22 08:33:22;;;;;;;37.53;17.70;;;;;;;-1.78;72.83;95578.84;5097494;28;20242;-80
2021/12/22 08:38:53;;;;;;;36.87;18.00;;;;;;;-1.37;69.94;95578.94;5080054;28;20295;-83
2021/12/22 08:41:33;;;;;;;36.63;17.80;;;;;;;-1.23;69.18;95585.47;5097982;28;20192;-82
2021/12/22 08:44:04;;;;;;;36.27;17.73;;;;;;;-1.10;68.50;95586.13;5098496;28;20200;-82
2021/12/22 08:46:33;;;;;;;32.40;16.63;;;;;;;-1.09;67.48;95585.16;5093800;28;20205;-82
2021/12/22 08:49:02;;;;;;;37.63;17.27;;;;;;;-1.10;67.89;95588.66;5073133;28;20656;-81
2021/12/22 08:51:37;;;;;;;37.87;18.37;;;;;;;-1.03;68.16;95592.31;5092326;28;20223;-81
2021/12/22 08:54:04;;;;;;;33.63;17.27;;;;;;;-0.92;67.10;95587.16;5093481;28;20200;-81
2021/12/22 08:56:36;;;;;;;39.20;19.60;;;;;;;-0.85;66.74;95593.38;5087241;28;20291;-82
2021/12/22 08:59:06;;;;;;;40.57;20.90;;;;;;;-0.87;66.65;95581.69;5093416;28;20649;-82
2021/12/22 09:01:33;;;;;;;39.23;21.43;;;;;;;-0.82;66.13;95587.22;5086194;28;20205;-81
2021/12/22 09:04:01;;;;;;;41.33;20.83;;;;;;;-0.98;66.29;95587.66;5086595;28;20296;-81
2021/12/22 09:06:29;;;;;;;37.40;20.07;;;;;;;-1.54;68.15;95588.84;5087427;28;20205;-81
2021/12/22 09:08:58;;;;;;;41.53;20.63;;;;;;;-1.97;70.63;95574.41;5079137;28;20194;-81
2021/12/22 09:11:26;;;;;;;39.57;21.50;;;;;;;-2.19;72.86;95586.34;5079022;28;20200;-81
2021/12/22 09:13:55;;;;;;;37.67;19.80;;;;;;;-2.01;72.89;95579.81;5087596;28;20204;-81
2021/12/22 09:16:22;;;;;;;51.20;19.53;;;;;;;-1.80;71.88;95575.63;5092887;28;20292;-81
2021/12/22 09:18:50;;;;;;;44.33;19.57;;;;;;;-1.49;70.78;95587.56;5092723;28;20292;-81
2021/12/22 09:21:18;;;;;;;34.70;18.50;;;;;;;-1.24;70.19;95576.22;5092614;28;20250;-81
2021/12/22 09:23:46;;;;;;;32.00;18.00;;;;;;;-1.35;67.39;95571.16;5092842;28;20251;-82
2021/12/22 09:26:13;;;;;;;34.67;17.50;;;;;;;-1.51;68.24;95584.31;5092857;28;20780;-81
2021/12/22 09:28:41;;;;;;;35.43;18.00;;;;;;;-1.99;69.70;95580.53;5092716;28;20630;-81
2021/12/22 09:31:10;;;;;;;42.80;19.00;;;;;;;-2.36;73.31;95569.81;5092512;28;20280;-81
2021/12/22 09:33:38;;;;;;;42.77;18.67;;;;;;;-2.07;74.62;95578.56;5105310;28;20192;-81
2021/12/22 09:36:09;;;;;;;41.60;20.23;;;;;;;-1.66;71.79;95570.25;5105338;28;20277;-80
2021/12/22 09:38:37;;;;;;;46.53;21.43;;;;;;;-1.78;70.02;95574.56;5101023;28;20655;-81
2021/12/22 09:41:06;;;;;;;44.03;21.20;;;;;;;-1.94;71.65;95563.97;5097614;28;20208;-82
2021/12/22 09:43:34;;;;;;;40.70;20.43;;;;;;;-1.68;72.11;95556.00;5092352;28;20212;-81
2021/12/22 09:46:03;;;;;;;42.47;20.53;;;;;;;-1.17;70.45;95564.59;5091927;28;20355;-81
2021/12/22 09:48:47;;;;;;;38.57;19.70;;;;;;;-1.08;67.66;95553.66;5078574;28;20237;-81
2021/12/22 09:54:05;;;;;;;50.23;21.73;;;;;;;-1.12;68.83;95549.72;5091938;28;20203;-81
2021/12/22 09:56:33;;;;;;;41.23;21.90;;;;;;;-0.66;66.38;95552.66;5085162;28;20196;-81
2021/12/22 09:59:02;;;;;;;40.40;20.70;;;;;;;-0.45;64.78;95550.06;5109410;28;20656;-83
2021/12/22 10:01:29;;;;;;;47.40;20.97;;;;;;;-0.49;64.49;95547.91;5072050;28;20239;-85
2021/12/22 10:04:01;;;;;;;38.57;21.57;;;;;;;-0.51;64.49;95540.38;5077777;28;20232;-82
2021/12/22 10:06:29;;;;;;;40.63;21.57;;;;;;;-0.24;64.93;95555.09;5091026;28;20204;-87
2021/12/22 10:09:00;;;;;;;44.57;21.00;;;;;;;0.51;63.03;95540.03;5098753;28;20205;-85
2021/12/22 10:11:54;;;;;;;42.60;21.63;;;;;;;1.68;58.58;95540.44;5092475;28;20663;-86
2021/12/22 10:14:26;;;;;;;38.90;20.63;;;;;;;1.74;56.55;95537.31;5092337;28;20282;-85
2021/12/22 10:16:55;;;;;;;42.27;21.77;;;;;;;1.27;57.43;95539.09;5092384;28;20185;-87
2021/12/22 10:19:28;;;;;;;45.33;22.70;;;;;;;1.23;57.85;95537.78;5086129;28;20223;-86
2021/12/22 10:21:58;;;;;;;38.73;21.53;;;;;;;1.88;57.08;95539.38;5098596;28;20280;-85
2021/12/22 10:24:37;;;;;;;41.30;21.63;;;;;;;2.24;54.26;95541.06;5091706;28;20197;-85
2021/12/22 10:27:07;;;;;;;44.23;21.50;;;;;;;1.62;55.38;95541.00;5091316;28;20232;-87
2021/12/22 10:29:36;;;;;;;40.47;21.37;;;;;;;0.97;57.52;95542.69;5092127;28;20250;-86
2021/12/22 10:32:14;;;;;;;47.90;23.80;;;;;;;1.06;58.04;95535.94;5092066;28;20193;-85
2021/12/22 10:35:02;;;;;;;46.17;22.30;;;;;;;1.69;57.06;95540.31;5087300;28;20193;-85
2021/12/22 10:37:38;;;;;;;50.87;22.77;;;;;;;1.71;55.90;95532.47;5079403;28;20206;-85
2021/12/22 10:40:25;;;;;;;42.60;21.13;;;;;;;0.92;57.78;95538.91;5072596;28;20181;-81
2021/12/22 10:42:54;;;;;;;46.17;22.00;;;;;;;0.36;60.42;95543.91;5072613;28;20212;-85
2021/12/22 10:45:21;;;;;;;50.53;22.90;;;;;;;0.60;60.38;95526.44;5078570;28;20208;-83
2021/12/22 10:50:38;;;;;;;40.50;21.50;;;;;;;0.31;60.20;95511.09;5100693;28;20200;-85
2021/12/22 10:53:08;;;;;;;50.33;22.43;;;;;;;-0.18;62.22;95500.97;5092408;28;20211;-86
2021/12/22 10:55:42;;;;;;;50.57;21.83;;;;;;;-0.08;63.88;95517.91;5095793;28;20250;-86
2021/12/22 10:58:19;;;;;;;39.53;20.20;;;;;;;0.18;63.06;95502.06;5093211;28;20203;-86
2021/12/22 11:01:01;;;;;;;49.10;20.83;;;;;;;0.44;61.10;95485.25;5101282;28;20196;-85
2021/12/22 11:03:39;;;;;;;45.13;21.73;;;;;;;0.37;60.91;95508.00;5095614;28;20231;-85
2021/12/22 11:06:19;;;;;;;48.07;19.43;;;;;;;-0.20;63.02;95473.00;5099959;28;20251;-85
2021/12/22 11:08:57;;;;;;;42.13;21.60;;;;;;;0.05;63.47;95487.00;5108577;28;20192;-85
2021/12/22 11:11:26;;;;;;;43.37;21.57;;;;;;;0.53;62.53;95492.94;5097079;28;20235;-85
2021/12/22 11:14:12;;;;;;;42.73;19.47;;;;;;;0.68;61.08;95495.06;5101659;28;20207;-85
2021/12/22 11:17:01;;;;;;;41.00;19.83;;;;;;;0.28;61.86;95477.34;5087541;28;20201;-86
2021/12/22 11:19:31;;;;;;;42.73;20.63;;;;;;;0.38;62.97;95496.03;5105321;28;20651;-86
2021/12/22 11:22:05;;;;;;;44.20;20.70;;;;;;;0.70;61.30;95493.97;5096374;28;20189;-87
2021/12/22 11:24:35;;;;;;;36.67;20.03;;;;;;;1.08;59.81;95493.91;5092211;28;20707;-88
2021/12/22 11:27:04;;;;;;;39.63;20.50;;;;;;;0.89;59.18;95475.25;5110766;28;20221;-85
2021/12/22 11:29:33;;;;;;;36.97;19.20;;;;;;;0.62;60.83;95470.03;5113497;28;20204;-85
2021/12/22 11:32:04;;;;;;;39.50;18.83;;;;;;;0.61;61.36;95468.44;5093481;28;20201;-86
2021/12/22 11:34:34;;;;;;;42.10;19.63;;;;;;;1.12;60.47;95494.44;5094988;28;20209;-87
2021/12/22 11:37:04;;;;;;;33.37;17.73;;;;;;;1.50;58.63;95486.59;5094139;28;21044;-87
2021/12/22 11:39:33;;;;;;;46.67;18.80;;;;;;;1.29;59.03;95491.13;5095644;28;20282;-76
2021/12/22 11:42:03;;;;;;;40.43;18.87;;;;;;;0.87;59.55;95480.47;5101884;28;20200;-88
2021/12/22 11:44:32;;;;;;;41.10;19.23;;;;;;;0.96;60.17;95479.66;5096322;28;20278;-87